createdAt,value
2022-10-26T00:01:12.068Z,74.82
2022-10-26T00:03:40.930Z,75.36
2022-10-26T00:06:13.418Z,74.81
2022-10-26T00:08:40.369Z,75.02
2022-10-26T00:11:07.883Z,75.10
2022-10-26T00:13:35.697Z,74.82
2022-10-26T00:16:08.802Z,74.69
2022-10-26T00:18:35.448Z,74.56
2022-10-26T00:21:06.774Z,74.71
2022-10-26T00:23:34.175Z,75.22
2022-10-26T00:26:00.967Z,75.03
2022-10-26T00:28:27.533Z,74.92
2022-10-26T00:30:54.588Z,75.25
2022-10-26T00:33:21.575Z,74.73
2022-10-26T00:35:49.314Z,74.74
2022-10-26T00:38:15.929Z,74.60
2022-10-26T00:40:44.169Z,74.65
2022-10-26T00:43:35.942Z,74.53
2022-10-26T00:46:06.240Z,74.96
2022-10-26T00:48:38.253Z,74.98
2022-10-26T00:51:13.839Z,74.57
2022-10-26T00:53:41.488Z,74.28
2022-10-26T00:56:11.574Z,74.54
2022-10-26T00:58:41.769Z,74.08
2022-10-26T01:01:08.971Z,74.28
2022-10-26T01:03:36.718Z,74.78
2022-10-26T01:06:04.946Z,74.59
2022-10-26T01:08:32.170Z,74.84
2022-10-26T01:11:00.307Z,75.22
2022-10-26T01:13:30.199Z,75.09
2022-10-26T01:16:20.549Z,75.05
2022-10-26T01:18:50.775Z,74.64
2022-10-26T01:21:53.105Z,75.08
2022-10-26T01:24:43.250Z,74.68
2022-10-26T01:27:19.472Z,74.98
2022-10-26T01:30:10.783Z,75.29
2022-10-26T01:32:42.501Z,75.14
2022-10-26T01:35:14.395Z,74.78
2022-10-26T01:37:55.038Z,74.94
2022-10-26T01:40:29.850Z,75.18
2022-10-26T01:42:59.067Z,74.74
2022-10-26T01:45:27.991Z,75.05
2022-10-26T01:47:56.398Z,74.96
2022-10-26T01:50:23.434Z,75.13
2022-10-26T01:52:50.807Z,75.65
2022-10-26T01:55:47.979Z,75.25
2022-10-26T01:58:15.282Z,75.36
2022-10-26T02:00:49.850Z,75.16
2022-10-26T02:03:30.246Z,75.12
2022-10-26T02:06:03.067Z,74.98
2022-10-26T02:08:50.477Z,75.07
2022-10-26T02:11:40.081Z,75.43
2022-10-26T02:14:09.398Z,75.00
2022-10-26T02:16:58.973Z,74.92
2022-10-26T02:19:32.779Z,75.28
2022-10-26T02:22:19.276Z,74.86
2022-10-26T02:24:48.324Z,75.08
2022-10-26T02:27:22.055Z,75.12
2022-10-26T02:29:51.992Z,75.30
2022-10-26T02:32:20.391Z,75.05
2022-10-26T02:34:49.519Z,75.09
2022-10-26T02:37:19.778Z,74.99
2022-10-26T02:39:49.540Z,74.70
2022-10-26T02:42:16.485Z,75.10
2022-10-26T02:44:49.214Z,75.08
2022-10-26T02:47:16.639Z,75.12
2022-10-26T02:49:43.710Z,75.52
2022-10-26T02:52:22.388Z,75.29
2022-10-26T02:54:52.740Z,75.25
2022-10-26T02:57:51.611Z,74.98
2022-10-26T03:00:19.096Z,74.75
2022-10-26T03:02:54.538Z,74.97
2022-10-26T03:05:24.856Z,74.82
2022-10-26T03:07:51.693Z,74.82
2022-10-26T03:10:18.982Z,74.73
2022-10-26T03:12:45.499Z,74.90
2022-10-26T03:15:12.488Z,75.15
2022-10-26T03:17:39.254Z,74.90
2022-10-26T03:20:06.399Z,74.77
2022-10-26T03:22:32.887Z,74.78
2022-10-26T03:24:59.510Z,75.11
2022-10-26T03:27:26.997Z,75.22
2022-10-26T03:29:54.166Z,75.18
2022-10-26T03:32:22.284Z,75.33
2022-10-26T03:34:48.852Z,74.84
2022-10-26T03:37:15.489Z,75.20
2022-10-26T03:39:43.155Z,74.96
2022-10-26T03:42:09.603Z,74.30
2022-10-26T03:44:36.123Z,74.87
2022-10-26T03:47:02.638Z,74.57
2022-10-26T03:49:29.223Z,74.69
2022-10-26T03:51:55.776Z,74.36
2022-10-26T03:54:23.167Z,74.68
2022-10-26T03:56:52.673Z,74.59
2022-10-26T03:59:22.499Z,74.85
2022-10-26T04:01:52.678Z,74.87
2022-10-26T04:04:22.235Z,75.19
2022-10-26T04:06:48.864Z,74.85
2022-10-26T04:09:18.038Z,75.17
2022-10-26T04:11:44.562Z,75.49
2022-10-26T04:14:11.381Z,75.49
2022-10-26T04:16:37.995Z,75.63
2022-10-26T04:19:05.056Z,75.78
2022-10-26T04:21:33.109Z,75.90
2022-10-26T04:23:59.689Z,75.96
2022-10-26T04:26:26.210Z,76.19
2022-10-26T04:28:52.721Z,75.71
2022-10-26T04:31:20.234Z,76.32
2022-10-26T04:33:46.780Z,76.42
2022-10-26T04:36:13.309Z,76.46
2022-10-26T04:38:41.838Z,76.60
2022-10-26T04:41:08.353Z,76.65
2022-10-26T04:43:34.897Z,76.89
2022-10-26T04:46:01.444Z,76.27
2022-10-26T04:48:28.840Z,76.45
2022-10-26T04:50:58.898Z,76.36
2022-10-26T04:53:26.875Z,76.19
2022-10-26T04:56:01.121Z,76.25
2022-10-26T04:58:29.041Z,76.34
2022-10-26T05:00:56.007Z,76.12
2022-10-26T05:03:22.902Z,76.06
2022-10-26T05:05:49.456Z,75.80
2022-10-26T05:08:16.344Z,76.17
2022-10-26T05:10:42.906Z,76.54
2022-10-26T05:13:10.753Z,76.52
2022-10-26T05:15:37.304Z,76.64
2022-10-26T05:18:05.742Z,76.53
2022-10-26T05:20:34.730Z,76.67
2022-10-26T05:23:04.937Z,76.97
2022-10-26T05:25:34.495Z,76.69
2022-10-26T05:28:04.189Z,76.67
2022-10-26T05:30:31.480Z,76.41
2022-10-26T05:32:59.616Z,76.32
2022-10-26T05:35:29.938Z,76.26
2022-10-26T05:37:56.503Z,76.81
2022-10-26T05:40:23.476Z,76.07
2022-10-26T05:42:51.432Z,76.09
2022-10-26T05:45:18.448Z,76.00
2022-10-26T05:47:45.516Z,76.02
2022-10-26T05:50:13.449Z,75.95
2022-10-26T05:52:42.755Z,75.34
2022-10-26T05:55:10.509Z,75.36
2022-10-26T05:57:37.705Z,75.26
2022-10-26T06:00:09.280Z,75.16
2022-10-26T06:02:57.635Z,75.41
2022-10-26T06:05:27.912Z,75.53
2022-10-26T06:07:54.781Z,75.70
2022-10-26T06:10:21.620Z,75.64
2022-10-26T06:12:48.702Z,75.35
2022-10-26T06:15:19.595Z,75.29
2022-10-26T06:17:53.866Z,75.30
2022-10-26T06:20:34.153Z,75.45
2022-10-26T06:23:32.064Z,75.49
2022-10-26T06:26:11.414Z,75.74
2022-10-26T06:28:57.066Z,76.14
2022-10-26T06:31:23.744Z,76.52
2022-10-26T06:33:52.512Z,77.03
2022-10-26T06:36:30.067Z,77.59
2022-10-26T06:39:12.385Z,77.58
2022-10-26T06:41:40.137Z,78.27
2022-10-26T06:44:07.250Z,78.78
2022-10-26T06:46:46.142Z,79.23
2022-10-26T06:49:23.067Z,80.15
2022-10-26T06:52:00.045Z,80.64
2022-10-26T06:54:51.527Z,81.88
2022-10-26T06:57:22.922Z,82.10
2022-10-26T06:59:53.409Z,82.30
2022-10-26T07:02:20.809Z,81.71
2022-10-26T07:04:48.052Z,81.61
2022-10-26T07:07:31.074Z,80.94
2022-10-26T07:09:57.978Z,80.68
2022-10-26T07:12:24.490Z,80.16
2022-10-26T07:14:51.064Z,80.19
2022-10-26T07:17:17.718Z,79.97
2022-10-26T07:19:44.844Z,79.62
2022-10-26T07:22:11.865Z,79.31
2022-10-26T07:24:40.063Z,78.99
2022-10-26T07:27:06.632Z,78.94
2022-10-26T07:29:35.232Z,78.51
2022-10-26T07:32:01.859Z,78.60
2022-10-26T07:34:28.424Z,78.27
2022-10-26T07:36:54.895Z,78.42
2022-10-26T07:39:22.061Z,78.02
2022-10-26T07:41:48.582Z,77.66
2022-10-26T07:44:15.512Z,76.75
2022-10-26T07:46:42.114Z,76.43
2022-10-26T07:49:08.750Z,76.43
2022-10-26T07:51:35.265Z,76.37
2022-10-26T07:54:04.907Z,75.12
2022-10-26T07:56:31.712Z,72.09
2022-10-26T07:58:58.372Z,68.49
2022-10-26T08:01:26.108Z,66.51
2022-10-26T08:03:54.900Z,67.28
2022-10-26T08:06:22.567Z,66.17
2022-10-26T08:08:49.443Z,65.30
2022-10-26T08:11:16.950Z,63.05
2022-10-26T08:13:43.678Z,62.75
2022-10-26T08:16:10.394Z,64.54
2022-10-26T08:18:37.033Z,64.07
2022-10-26T08:21:11.631Z,62.89
2022-10-26T08:23:40.068Z,61.27
2022-10-26T08:26:07.218Z,60.12
2022-10-26T08:28:33.755Z,59.60
2022-10-26T08:31:00.301Z,58.46
2022-10-26T08:33:26.911Z,60.34
2022-10-26T08:36:00.674Z,62.62
2022-10-26T08:38:27.896Z,60.17
2022-10-26T08:40:56.745Z,59.92
2022-10-26T08:43:30.084Z,59.94
2022-10-26T08:46:11.465Z,59.57
2022-10-26T08:48:49.943Z,60.33
2022-10-26T08:51:37.441Z,61.21
2022-10-26T08:54:06.695Z,61.96
2022-10-26T08:56:40.905Z,61.51
2022-10-26T08:59:20.104Z,61.36
2022-10-26T09:01:46.835Z,61.92
2022-10-26T09:04:13.495Z,62.22
2022-10-26T09:06:59.986Z,62.89
2022-10-26T09:09:42.427Z,62.64
2022-10-26T09:12:36.823Z,63.18
2022-10-26T09:15:18.722Z,62.80
2022-10-26T09:17:57.465Z,62.00
2022-10-26T09:21:01.985Z,61.63
2022-10-26T09:23:32.875Z,61.31
2022-10-26T09:26:01.973Z,59.60
2022-10-26T09:28:37.739Z,60.48
2022-10-26T09:31:05.019Z,60.55
2022-10-26T09:33:36.816Z,61.30
2022-10-26T09:36:11.854Z,61.30
2022-10-26T09:38:43.614Z,60.60
2022-10-26T09:41:15.531Z,60.84
2022-10-26T09:44:03.243Z,61.27
2022-10-26T09:47:03.333Z,61.44
2022-10-26T09:49:43.401Z,62.35
2022-10-26T09:54:45.015Z,61.90
2022-10-26T09:57:15.946Z,61.91
2022-10-26T09:59:42.829Z,61.60
2022-10-26T10:02:37.583Z,61.45
2022-10-26T10:05:27.519Z,61.19
2022-10-26T10:08:14.276Z,61.09
2022-10-26T10:10:53.680Z,61.46
2022-10-26T10:13:22.906Z,61.71
2022-10-26T10:15:55.185Z,62.08
2022-10-26T10:18:24.145Z,62.14
2022-10-26T10:20:58.409Z,61.99
2022-10-26T10:23:28.073Z,61.75
2022-10-26T10:26:06.922Z,61.79
2022-10-26T10:28:34.500Z,61.39
2022-10-26T10:31:18.010Z,61.22
2022-10-26T10:33:45.742Z,60.45
2022-10-26T10:36:29.610Z,60.61
2022-10-26T10:38:57.144Z,61.00
2022-10-26T10:41:29.029Z,60.77
2022-10-26T10:44:15.188Z,60.30
2022-10-26T10:46:42.087Z,60.22
2022-10-26T10:49:22.088Z,60.07
2022-10-26T10:51:49.628Z,59.89
2022-10-26T10:54:21.136Z,59.70
2022-10-26T10:56:52.596Z,59.87
2022-10-26T10:59:33.961Z,58.98
2022-10-26T11:02:06.647Z,58.78
2022-10-26T11:04:34.085Z,58.82
2022-10-26T11:07:04.672Z,58.43
2022-10-26T11:09:36.032Z,57.58
2022-10-26T11:12:28.908Z,56.26
2022-10-26T11:15:19.112Z,56.42
2022-10-26T11:18:12.067Z,55.72
2022-10-26T11:20:51.869Z,54.53
2022-10-26T11:23:25.465Z,53.73
2022-10-26T11:26:18.503Z,53.77
2022-10-26T11:28:53.529Z,53.59
2022-10-26T11:31:31.772Z,52.47
2022-10-26T11:34:21.003Z,51.85
2022-10-26T11:36:54.538Z,51.00
2022-10-26T11:39:29.959Z,50.75
2022-10-26T11:42:02.012Z,50.75
2022-10-26T11:44:49.211Z,50.11
2022-10-26T11:47:49.414Z,49.92
2022-10-26T11:50:21.995Z,49.85
2022-10-26T11:52:58.720Z,49.69
2022-10-26T11:55:25.345Z,49.45
2022-10-26T11:57:55.144Z,48.89
2022-10-26T12:00:23.243Z,48.55
2022-10-26T12:02:55.775Z,49.10
2022-10-26T12:05:37.075Z,49.30
2022-10-26T12:08:10.731Z,49.65
2022-10-26T12:10:41.672Z,49.85
2022-10-26T12:13:33.562Z,49.23
2022-10-26T12:16:40.601Z,49.42
2022-10-26T12:19:18.025Z,49.08
2022-10-26T12:21:46.946Z,49.03
2022-10-26T12:24:22.211Z,49.04
2022-10-26T12:26:52.991Z,49.04
2022-10-26T12:29:34.841Z,49.50
2022-10-26T12:32:02.381Z,49.50
2022-10-26T12:34:31.845Z,49.69
2022-10-26T12:36:58.574Z,49.18
2022-10-26T12:39:38.096Z,48.92
2022-10-26T12:42:05.578Z,48.43
2022-10-26T12:44:45.672Z,48.57
2022-10-26T12:47:27.435Z,48.65
2022-10-26T12:50:07.188Z,48.51
2022-10-26T12:52:45.969Z,48.57
2022-10-26T12:55:13.214Z,48.88
2022-10-26T12:57:57.165Z,48.97
2022-10-26T13:00:26.590Z,48.66
2022-10-26T13:03:30.943Z,48.98
2022-10-26T13:06:04.232Z,49.12
2022-10-26T13:08:47.880Z,48.33
2022-10-26T13:11:17.710Z,47.61
2022-10-26T13:13:45.586Z,47.47
2022-10-26T13:16:16.504Z,46.63
2022-10-26T13:18:46.104Z,47.19
2022-10-26T13:21:16.883Z,46.65
2022-10-26T13:23:58.304Z,46.96
2022-10-26T13:26:27.592Z,46.80
2022-10-26T13:28:57.250Z,46.33
2022-10-26T13:31:33.496Z,45.60
2022-10-26T13:34:20.763Z,45.80
2022-10-26T13:37:13.326Z,46.84
2022-10-26T13:39:43.626Z,46.00
2022-10-26T13:42:18.166Z,45.78
2022-10-26T13:45:03.336Z,45.72
2022-10-26T13:47:42.252Z,45.40
2022-10-26T13:50:17.273Z,45.22
2022-10-26T13:52:58.443Z,45.63
2022-10-26T13:55:46.954Z,45.26
2022-10-26T13:58:23.186Z,45.67
2022-10-26T14:01:02.767Z,45.57
2022-10-26T14:03:33.173Z,45.73
2022-10-26T14:06:00.101Z,45.40
2022-10-26T14:08:26.731Z,45.84
2022-10-26T14:10:57.810Z,46.18
2022-10-26T14:13:27.103Z,45.86
2022-10-26T14:15:56.927Z,46.54
2022-10-26T14:18:30.206Z,45.95
2022-10-26T14:21:01.404Z,45.60
2022-10-26T14:23:29.490Z,45.67
2022-10-26T14:25:59.027Z,45.83
2022-10-26T14:28:29.197Z,46.15
2022-10-26T14:31:15.260Z,46.38
2022-10-26T14:33:44.748Z,47.09
2022-10-26T14:36:12.097Z,46.79
2022-10-26T14:38:45.102Z,46.87
2022-10-26T14:41:15.785Z,47.33
2022-10-26T14:43:43.869Z,46.91
2022-10-26T14:46:20.223Z,47.04
2022-10-26T14:48:58.776Z,46.95
2022-10-26T14:51:30.588Z,47.12
2022-10-26T14:54:01.018Z,47.17
2022-10-26T14:56:29.342Z,47.39
2022-10-26T14:58:57.558Z,48.06
2022-10-26T15:01:29.256Z,47.94
2022-10-26T15:04:04.823Z,48.04
2022-10-26T15:06:35.593Z,48.37
2022-10-26T15:09:07.382Z,48.24
2022-10-26T15:11:35.087Z,48.37
2022-10-26T15:14:02.793Z,48.65
2022-10-26T15:16:34.350Z,48.94
2022-10-26T15:19:08.727Z,49.35
2022-10-26T15:21:45.075Z,49.19
2022-10-26T15:24:26.332Z,49.45
2022-10-26T15:26:53.236Z,49.72
2022-10-26T15:29:48.865Z,50.08
2022-10-26T15:32:32.083Z,50.62
2022-10-26T15:35:11.628Z,50.61
2022-10-26T15:37:38.698Z,51.04
2022-10-26T15:40:06.529Z,51.21
2022-10-26T15:42:38.129Z,51.84
2022-10-26T15:45:19.572Z,52.05
2022-10-26T15:47:47.240Z,52.48
2022-10-26T15:50:16.365Z,52.78
2022-10-26T15:52:46.670Z,52.95
2022-10-26T15:55:16.494Z,53.20
2022-10-26T15:57:43.399Z,53.40
2022-10-26T16:00:15.923Z,53.77
2022-10-26T16:02:45.227Z,53.73
2022-10-26T16:05:14.780Z,54.86
2022-10-26T16:07:43.215Z,55.15
2022-10-26T16:10:17.419Z,55.35
2022-10-26T16:12:44.077Z,55.66
2022-10-26T16:15:17.980Z,55.79
2022-10-26T16:17:45.277Z,56.11
2022-10-26T16:20:19.335Z,56.76
2022-10-26T16:22:48.298Z,56.64
2022-10-26T16:25:21.627Z,57.11
2022-10-26T16:27:49.587Z,57.21
2022-10-26T16:30:17.240Z,57.19
2022-10-26T16:32:44.156Z,57.68
2022-10-26T16:35:12.216Z,58.75
2022-10-26T16:37:39.358Z,59.99
2022-10-26T16:40:07.994Z,59.79
2022-10-26T16:42:35.159Z,59.88
2022-10-26T16:45:02.941Z,59.60
2022-10-26T16:47:36.289Z,60.88
2022-10-26T16:50:04.370Z,60.65
2022-10-26T16:52:31.030Z,61.15
2022-10-26T16:54:57.712Z,61.72
2022-10-26T16:57:24.407Z,63.06
2022-10-26T16:59:51.138Z,62.76
2022-10-26T17:02:20.898Z,62.89
2022-10-26T17:04:47.705Z,63.24
2022-10-26T17:07:14.286Z,64.43
2022-10-26T17:09:41.022Z,65.67
2022-10-26T17:12:07.628Z,66.00
2022-10-26T17:14:34.335Z,66.52
2022-10-26T17:17:02.098Z,66.66
2022-10-26T17:19:28.849Z,66.31
2022-10-26T17:21:55.608Z,66.00
2022-10-26T17:24:22.387Z,66.03
2022-10-26T17:26:48.917Z,66.18
2022-10-26T17:29:15.616Z,66.07
2022-10-26T17:31:42.223Z,66.51
2022-10-26T17:34:10.569Z,66.39
2022-10-26T17:36:37.213Z,66.23
2022-10-26T17:39:04.277Z,65.89
2022-10-26T17:41:30.839Z,65.71
2022-10-26T17:43:57.435Z,66.02
2022-10-26T17:46:26.316Z,66.31
2022-10-26T17:48:57.869Z,65.93
2022-10-26T17:51:26.090Z,65.83
2022-10-26T17:53:53.475Z,65.75
2022-10-26T17:56:23.095Z,65.33
2022-10-26T17:58:58.119Z,65.14
2022-10-26T18:01:25.868Z,65.29
2022-10-26T18:03:53.218Z,65.15
2022-10-26T18:06:23.086Z,65.06
2022-10-26T18:08:50.359Z,65.09
2022-10-26T18:11:25.341Z,65.24
2022-10-26T18:14:01.106Z,65.46
2022-10-26T18:16:28.214Z,65.65
2022-10-26T18:19:00.323Z,65.69
2022-10-26T18:21:29.370Z,66.08
2022-10-26T18:23:56.286Z,66.34
2022-10-26T18:26:26.309Z,66.34
2022-10-26T18:28:53.289Z,66.60
2022-10-26T18:31:21.752Z,66.79
2022-10-26T18:33:49.087Z,66.96
2022-10-26T18:36:18.427Z,67.26
2022-10-26T18:38:47.219Z,67.30
2022-10-26T18:41:15.858Z,67.35
2022-10-26T18:43:44.588Z,67.81
2022-10-26T18:46:19.168Z,67.94
2022-10-26T18:48:48.175Z,68.01
2022-10-26T18:51:18.302Z,68.21
2022-10-26T18:53:46.359Z,68.53
2022-10-26T18:56:16.277Z,68.62
2022-10-26T18:58:45.035Z,68.67
2022-10-26T19:01:20.287Z,69.06
2022-10-26T19:03:48.182Z,69.30
2022-10-26T19:06:20.207Z,69.29
2022-10-26T19:08:47.309Z,69.41
2022-10-26T19:11:16.303Z,69.71
2022-10-26T19:13:45.084Z,69.75
2022-10-26T19:16:17.377Z,70.16
2022-10-26T19:18:55.866Z,70.56
2022-10-26T19:21:23.496Z,70.68
2022-10-26T19:23:52.657Z,70.92
2022-10-26T19:26:25.344Z,70.77
2022-10-26T19:29:02.672Z,71.14
2022-10-26T19:31:33.604Z,71.31
2022-10-26T19:34:00.844Z,71.41
2022-10-26T19:36:28.495Z,71.50
2022-10-26T19:38:56.951Z,71.70
2022-10-26T19:41:26.537Z,72.01
2022-10-26T19:43:54.794Z,71.64
2022-10-26T19:46:24.535Z,71.98
2022-10-26T19:48:54.140Z,72.16
2022-10-26T19:51:21.359Z,72.57
2022-10-26T19:53:48.450Z,72.62
2022-10-26T19:56:15.820Z,73.05
2022-10-26T19:58:44.413Z,73.43
2022-10-26T20:01:13.798Z,73.54
2022-10-26T20:03:41.080Z,73.67
2022-10-26T20:06:12.825Z,73.90
2022-10-26T20:08:44.995Z,73.89
2022-10-26T20:11:15.519Z,74.09
2022-10-26T20:13:44.803Z,74.10
2022-10-26T20:16:12.295Z,74.29
2022-10-26T20:18:42.757Z,74.37
2022-10-26T20:21:16.309Z,74.02
2022-10-26T20:23:43.518Z,74.19
2022-10-26T20:26:18.030Z,73.54
2022-10-26T20:28:48.893Z,73.58
2022-10-26T20:31:15.528Z,74.15
2022-10-26T20:33:42.906Z,74.02
2022-10-26T20:36:10.978Z,73.68
2022-10-26T20:38:39.273Z,72.99
2022-10-26T20:41:09.254Z,72.85
2022-10-26T20:43:38.913Z,72.36
2022-10-26T20:46:06.216Z,72.64
2022-10-26T20:48:33.066Z,72.66
2022-10-26T20:54:01.106Z,72.78
2022-10-26T20:56:29.161Z,73.02
2022-10-26T20:58:58.119Z,73.33
2022-10-26T21:01:30.726Z,73.61
2022-10-26T21:03:59.922Z,73.73
2022-10-26T21:06:27.363Z,73.92
2022-10-26T21:08:56.345Z,74.13
2022-10-26T21:11:24.710Z,74.01
2022-10-26T21:13:53.824Z,74.23
2022-10-26T21:18:52.455Z,74.49
2022-10-26T21:21:18.987Z,75.10
2022-10-26T21:23:46.537Z,74.96
2022-10-26T21:26:13.319Z,75.60
2022-10-26T21:28:41.974Z,75.22
2022-10-26T21:31:11.103Z,75.22
2022-10-26T21:33:38.327Z,75.18
2022-10-26T21:36:07.242Z,75.37
2022-10-26T21:38:35.344Z,75.86
2022-10-26T21:41:16.251Z,76.00
2022-10-26T21:43:48.351Z,75.83
2022-10-26T21:46:16.360Z,76.28
2022-10-26T21:48:42.963Z,76.33
2022-10-26T21:51:20.342Z,76.77
2022-10-26T21:53:47.803Z,77.28
2022-10-26T21:56:17.334Z,77.31
2022-10-26T21:58:46.394Z,77.28
2022-10-26T22:01:15.299Z,77.43
2022-10-26T22:03:42.878Z,77.49
2022-10-26T22:06:13.437Z,77.75
2022-10-26T22:08:40.061Z,77.89
2022-10-26T22:11:15.201Z,77.97
2022-10-26T22:13:43.727Z,77.99
2022-10-26T22:16:25.227Z,78.31
2022-10-26T22:18:56.392Z,78.71
2022-10-26T22:21:25.626Z,78.72
2022-10-26T22:23:52.261Z,78.58
2022-10-26T22:26:21.639Z,78.83
2022-10-26T22:28:50.900Z,78.96
2022-10-26T22:31:20.341Z,79.37
2022-10-26T22:33:55.515Z,79.31
2022-10-26T22:36:22.673Z,79.04
2022-10-26T22:38:50.296Z,79.17
2022-10-26T22:41:18.398Z,79.40
2022-10-26T22:43:45.513Z,79.77
2022-10-26T22:46:17.640Z,79.47
2022-10-26T22:48:47.354Z,79.91
2022-10-26T22:51:15.946Z,80.26
2022-10-26T22:53:43.241Z,80.43
2022-10-26T22:56:11.678Z,80.47
2022-10-26T22:58:39.245Z,80.30
2022-10-26T23:01:08.343Z,80.63
2022-10-26T23:03:35.417Z,80.37
2022-10-26T23:06:03.314Z,80.66
2022-10-26T23:08:29.918Z,80.70
2022-10-26T23:11:00.525Z,81.05
2022-10-26T23:13:28.930Z,81.23
2022-10-26T23:15:56.151Z,81.22
2022-10-26T23:18:23.385Z,81.66
2022-10-26T23:20:52.971Z,82.16
2022-10-26T23:23:19.527Z,82.35
2022-10-26T23:25:46.392Z,82.37
2022-10-26T23:28:13.702Z,82.88
2022-10-26T23:30:40.195Z,82.94
2022-10-26T23:33:07.837Z,82.65
2022-10-26T23:35:34.377Z,82.61
2022-10-26T23:38:00.912Z,83.28
2022-10-26T23:40:28.578Z,82.89
2022-10-26T23:42:55.819Z,82.36
2022-10-26T23:45:22.360Z,83.05
2022-10-26T23:47:49.580Z,82.97
2022-10-26T23:50:16.847Z,83.28
2022-10-26T23:52:49.524Z,83.53
2022-10-26T23:55:17.576Z,83.90
2022-10-26T23:57:44.072Z,83.29
